Time;durP1;ratioP1;P1;durP2;ratioP2;P2;SDS_P1;SDS_P2;PMS_P1;PMS_P2;Temp;Humidity;BMP_temperature;BMP_pressure;BME280_temperature;BME280_humidity;BME280_pressure;Samples;Min_cycle;Max_cycle;Signal;HPM_P1;HPM_P2
2024/04/19 00:04:08;;;;;;;22.80;14.60;;;;;;;3.50;100.00;98700.91;273788;1270;22256;-80
2024/04/19 00:10:37;;;;;;;22.70;14.80;;;;;;;3.48;100.00;98706.48;273454;1269;22262;-80
2024/04/19 00:17:21;;;;;;;21.30;13.70;;;;;;;3.47;100.00;98708.20;272610;1273;22275;-79
2024/04/19 00:23:23;;;;;;;23.30;14.70;;;;;;;3.43;100.00;98711.48;273664;1270;22253;-80
2024/04/19 00:29:45;;;;;;;22.80;15.30;;;;;;;3.36;100.00;98708.70;273407;1267;22268;-80
2024/04/19 00:36:21;;;;;;;25.40;13.90;;;;;;;3.26;100.00;98707.11;273480;1272;22266;-80
2024/04/19 00:43:04;;;;;;;21.40;14.00;;;;;;;3.20;100.00;98709.77;273128;1263;22709;-80
2024/04/19 00:49:28;;;;;;;22.40;13.80;;;;;;;3.19;100.00;98711.36;273649;1270;23060;-80
2024/04/19 00:56:10;;;;;;;23.40;14.20;;;;;;;3.21;100.00;98712.88;273578;1274;22247;-79
2024/04/19 01:03:15;;;;;;;30.90;16.10;;;;;;;3.19;100.00;98710.79;273725;1273;22257;-80
2024/04/19 01:09:44;;;;;;;26.10;15.80;;;;;;;3.17;100.00;98706.19;273444;1261;22286;-79
2024/04/19 01:16:28;;;;;;;24.40;15.40;;;;;;;3.17;100.00;98703.54;273438;1269;23297;-80
2024/04/19 01:23:31;;;;;;;24.60;14.40;;;;;;;3.17;100.00;98702.55;273245;1263;22278;-81
2024/04/19 01:29:53;;;;;;;23.90;14.50;;;;;;;3.15;100.00;98703.92;273511;1270;22517;-80
2024/04/19 01:36:02;;;;;;;23.80;14.70;;;;;;;3.10;100.00;98703.55;273420;1273;22260;-80
2024/04/19 01:42:40;;;;;;;24.30;14.80;;;;;;;2.96;100.00;98702.73;272663;1270;23215;-80
2024/04/19 01:49:22;;;;;;;23.30;14.60;;;;;;;2.84;100.00;98698.95;273468;1270;22293;-80
2024/04/19 01:55:44;;;;;;;24.20;14.60;;;;;;;2.71;100.00;98694.77;273343;1270;22280;-80
2024/04/19 02:02:07;;;;;;;26.60;16.10;;;;;;;2.62;100.00;98695.92;272946;1269;22408;-79
2024/04/19 02:08:49;;;;;;;24.50;15.00;;;;;;;2.61;100.00;98701.05;271629;1269;22552;-79
2024/04/19 02:15:12;;;;;;;29.50;15.60;;;;;;;2.62;100.00;98703.79;269484;1269;25598;-77
2024/04/19 02:21:35;;;;;;;24.90;14.50;;;;;;;2.58;100.00;98704.95;269725;1269;22848;-79
2024/04/19 02:34:45;;;;;;;22.40;13.10;;;;;;;2.46;100.00;98690.49;272570;1269;22259;-80
2024/04/19 02:40:47;;;;;;;23.10;12.90;;;;;;;2.41;100.00;98689.00;271613;1269;22881;-80
2024/04/19 02:46:50;;;;;;;30.50;16.60;;;;;;;2.38;100.00;98687.34;268648;1269;22371;-79
2024/04/19 02:52:51;;;;;;;36.60;20.60;;;;;;;2.30;100.00;98684.12;269359;1269;22656;-78
2024/04/19 02:58:53;;;;;;;38.00;22.20;;;;;;;2.19;100.00;98685.77;268629;1269;22560;-79
2024/04/19 03:05:36;;;;;;;34.70;20.80;;;;;;;2.08;100.00;98687.44;273161;1269;23505;-78
2024/04/19 03:12:15;;;;;;;33.20;17.20;;;;;;;1.98;100.00;98690.09;272055;1264;22526;-78
2024/04/19 03:18:21;;;;;;;28.30;15.30;;;;;;;1.91;100.00;98686.73;270366;1269;23456;-81
2024/04/19 03:24:22;;;;;;;26.00;13.40;;;;;;;1.84;100.00;98684.36;269954;1269;25341;-81
2024/04/19 03:31:04;;;;;;;23.40;12.90;;;;;;;1.80;100.00;98682.49;270258;1269;23277;-80
2024/04/19 03:37:26;;;;;;;20.80;12.90;;;;;;;1.76;100.00;98678.64;273228;1269;23869;-80
2024/04/19 03:43:33;;;;;;;25.30;14.00;;;;;;;1.70;100.00;98677.89;273771;1276;22267;-81
2024/04/19 03:49:35;;;;;;;22.70;13.40;;;;;;;1.67;100.00;98678.74;271993;1269;22568;-80
2024/04/19 03:56:17;;;;;;;20.90;12.90;;;;;;;1.63;100.00;98677.30;272873;1263;22269;-80
2024/04/19 04:03:00;;;;;;;25.70;14.80;;;;;;;1.62;100.00;98675.69;272797;1262;22413;-80
2024/04/19 04:09:03;;;;;;;24.20;13.70;;;;;;;1.62;100.00;98672.10;272301;1269;22669;-80
2024/04/19 04:15:04;;;;;;;23.40;13.70;;;;;;;1.66;100.00;98672.30;271058;1269;22521;-80
2024/04/19 04:21:26;;;;;;;24.30;13.50;;;;;;;1.68;100.00;98675.95;273329;1269;22462;-80
2024/04/19 04:28:08;;;;;;;22.60;12.80;;;;;;;1.71;100.00;98674.38;273496;1269;22256;-80
2024/04/19 04:35:11;;;;;;;20.90;12.90;;;;;;;1.75;100.00;98674.61;273349;1269;23182;-80
2024/04/19 04:41:39;;;;;;;29.30;15.20;;;;;;;1.81;100.00;98668.97;272818;1269;22436;-80
2024/04/19 04:47:40;;;;;;;31.10;15.70;;;;;;;1.96;100.00;98659.46;273247;1269;22299;-79
2024/04/19 04:53:42;;;;;;;24.90;14.00;;;;;;;2.09;100.00;98659.14;273245;1269;22304;-80
2024/04/19 05:00:05;;;;;;;22.50;13.00;;;;;;;2.27;100.00;98660.74;273320;1269;22276;-80
2024/04/19 05:06:06;;;;;;;24.10;12.40;;;;;;;2.54;100.00;98649.58;272149;1269;22550;-80
2024/04/19 05:12:08;;;;;;;21.00;13.00;;;;;;;2.93;100.00;98641.66;271553;1262;22246;-80
2024/04/19 05:18:10;;;;;;;21.70;13.80;;;;;;;3.28;100.00;98644.95;272800;1269;22412;-80
2024/04/19 05:24:11;;;;;;;20.40;12.80;;;;;;;3.54;100.00;98646.05;273195;1269;22300;-80
2024/04/19 05:30:13;;;;;;;20.20;13.00;;;;;;;3.79;100.00;98642.23;270988;1269;22307;-79
2024/04/19 05:36:15;;;;;;;18.80;12.50;;;;;;;4.06;100.00;98641.91;270691;1269;22312;-81
2024/04/19 05:42:17;;;;;;;22.60;13.30;;;;;;;4.31;100.00;98649.73;270321;1265;22423;-80
2024/04/19 05:48:59;;;;;;;25.50;13.70;;;;;;;4.57;100.00;98639.81;273479;1269;22245;-80
2024/04/19 05:55:01;;;;;;;17.50;10.70;;;;;;;4.97;100.00;98632.42;273481;1269;23038;-83
2024/04/19 06:01:25;;;;;;;23.60;10.10;;;;;;;5.38;100.00;98625.61;273601;1269;22211;-80
2024/04/19 06:07:27;;;;;;;15.40;9.60;;;;;;;5.82;100.00;98612.75;273296;1269;22423;-80
2024/04/19 06:13:28;;;;;;;11.00;5.60;;;;;;;6.11;100.00;98616.20;272861;1258;22263;-82
2024/04/19 06:19:33;;;;;;;9.90;4.40;;;;;;;6.17;100.00;98621.09;273852;1276;22381;-80
2024/04/19 06:26:15;;;;;;;4.70;3.40;;;;;;;6.25;100.00;98616.85;273582;1269;23835;-80
2024/04/19 06:32:17;;;;;;;5.50;3.80;;;;;;;6.34;100.00;98611.06;273326;1269;25135;-82
2024/04/19 06:38:19;;;;;;;8.90;5.00;;;;;;;6.61;100.00;98609.06;273367;1269;22245;-80
2024/04/19 06:44:20;;;;;;;4.80;3.30;;;;;;;6.79;100.00;98606.64;273776;1269;23517;-80
2024/04/19 06:51:03;;;;;;;10.00;3.80;;;;;;;6.85;100.00;98596.55;273446;1269;22262;-81
2024/04/19 06:57:25;;;;;;;4.80;2.20;;;;;;;6.98;100.00;98590.97;273417;1269;22263;-81
2024/04/19 07:04:07;;;;;;;4.60;2.80;;;;;;;7.06;99.98;98590.90;273638;1259;23266;-81
2024/04/19 07:10:10;;;;;;;6.50;2.80;;;;;;;7.16;100.00;98581.13;273384;1269;22308;-80
2024/04/19 07:16:34;;;;;;;6.10;2.30;;;;;;;7.27;99.94;98573.70;273736;1269;22332;-79
2024/04/19 07:22:36;;;;;;;5.20;1.90;;;;;;;7.41;99.40;98569.42;273410;1269;22465;-81
2024/04/19 07:28:38;;;;;;;4.10;2.00;;;;;;;7.48;96.18;98560.89;273340;1269;22478;-80
2024/04/19 07:34:42;;;;;;;8.50;2.60;;;;;;;7.67;96.56;98563.06;273850;1269;22239;-81
2024/04/19 07:41:23;;;;;;;3.60;2.20;;;;;;;7.88;95.19;98560.58;271366;1269;22537;-80
2024/04/19 07:48:06;;;;;;;4.90;2.20;;;;;;;8.03;94.97;98554.48;271322;1256;22283;-80
2024/04/19 07:55:29;;;;;;;5.10;2.30;;;;;;;8.33;94.66;98551.73;273509;1269;22258;-81
2024/04/19 08:01:50;;;;;;;3.40;1.90;;;;;;;8.44;93.38;98542.61;271658;1269;22577;-81
2024/04/19 08:07:52;;;;;;;6.50;2.30;;;;;;;8.68;92.71;98535.40;270020;1269;23394;-81
2024/04/19 08:13:54;;;;;;;4.00;1.90;;;;;;;8.82;91.50;98532.19;271858;1266;22262;-81
2024/04/19 08:20:16;;;;;;;5.50;1.70;;;;;;;8.88;88.87;98529.52;273718;1270;23045;-81
2024/04/19 08:26:18;;;;;;;5.70;1.40;;;;;;;8.84;86.05;98527.15;272893;1269;22398;-81
2024/04/19 08:32:40;;;;;;;3.40;1.70;;;;;;;8.80;86.28;98521.80;273795;1269;22288;-81
2024/04/19 08:39:02;;;;;;;2.00;1.20;;;;;;;8.77;87.76;98518.65;273608;1272;22416;-81
2024/04/19 08:45:05;;;;;;;4.00;1.80;;;;;;;9.37;85.74;98503.69;273265;1269;22969;-81
2024/04/19 08:51:47;;;;;;;3.30;1.40;;;;;;;10.05;84.52;98496.89;273656;1265;23219;-81
2024/04/19 08:58:53;;;;;;;7.80;1.50;;;;;;;10.13;82.48;98497.18;273658;1272;22262;-81
2024/04/19 09:05:16;;;;;;;3.40;1.30;;;;;;;10.06;82.76;98489.65;273702;1271;23228;-81
2024/04/19 09:11:18;;;;;;;3.50;1.70;;;;;;;9.97;82.23;98485.67;273472;1266;22245;-81
2024/04/19 09:18:02;;;;;;;3.20;1.70;;;;;;;9.74;80.69;98481.79;272924;1267;938370;-81
2024/04/19 09:24:45;;;;;;;3.80;2.70;;;;;;;9.49;79.99;98480.06;273551;1269;22226;-81
2024/04/19 09:31:30;;;;;;;2.30;1.40;;;;;;;9.38;79.74;98476.54;273913;1266;22133;-82
2024/04/19 09:38:53;;;;;;;3.80;1.60;;;;;;;9.21;79.72;98472.04;273747;1269;22246;-81
2024/04/19 09:45:43;;;;;;;4.00;1.70;;;;;;;9.20;80.01;98458.77;271903;1257;22382;-81
2024/04/19 09:51:47;;;;;;;3.50;1.50;;;;;;;9.53;79.89;98445.27;269887;1269;22618;-83
2024/04/19 09:58:32;;;;;;;3.20;1.10;;;;;;;10.02;78.82;98435.86;271386;1269;22329;-82
2024/04/19 10:05:15;;;;;;;2.80;1.40;;;;;;;10.75;77.25;98417.69;273613;1269;23203;-81
2024/04/19 10:11:17;;;;;;;3.50;1.20;;;;;;;11.60;75.76;98402.85;272354;1266;24054;-81
2024/04/19 10:17:20;;;;;;;3.60;1.90;;;;;;;12.16;71.34;98389.76;270403;1269;22520;-82
2024/04/19 10:23:42;;;;;;;3.60;1.60;;;;;;;12.02;69.97;98380.10;273679;1260;22912;-81
2024/04/19 10:30:04;;;;;;;3.20;1.20;;;;;;;11.76;69.80;98373.23;273657;1269;22210;-81
2024/04/19 10:36:29;;;;;;;1.70;1.40;;;;;;;11.60;70.65;98366.14;273941;1276;23145;-82
2024/04/19 10:43:03;;;;;;;3.50;1.50;;;;;;;11.93;71.02;98348.87;272036;1269;22617;-82
2024/04/19 10:49:48;;;;;;;2.20;1.00;;;;;;;11.94;67.69;98342.60;271097;1269;22299;-83
2024/04/19 10:56:10;;;;;;;5.00;1.50;;;;;;;11.50;66.71;98335.61;272986;1269;22719;-82
2024/04/19 11:02:12;;;;;;;1.60;1.10;;;;;;;11.30;66.93;98330.10;271113;1269;22467;-81
2024/04/19 11:08:14;;;;;;;4.90;1.60;;;;;;;12.17;67.09;98320.88;271906;1269;23878;-81
2024/04/19 11:14:18;;;;;;;3.30;1.30;;;;;;;12.75;65.90;98308.58;270366;1266;22510;-81
2024/04/19 11:20:37;;;;;;;2.20;1.20;;;;;;;13.38;61.92;98297.05;270111;1269;22551;-81
2024/04/19 11:26:39;;;;;;;4.60;1.90;;;;;;;13.76;61.33;98284.59;270943;1263;22274;-81
2024/04/19 11:33:11;;;;;;;2.40;1.40;;;;;;;13.90;58.24;98270.50;272884;1269;22349;-81
2024/04/19 11:39:13;;;;;;;1.40;1.00;;;;;;;13.79;60.25;98272.84;270615;1269;23458;-82
2024/04/19 11:45:15;;;;;;;2.30;1.30;;;;;;;13.96;58.52;98264.27;272373;1269;23110;-81
2024/04/19 11:51:37;;;;;;;3.60;1.40;;;;;;;14.05;58.98;98250.30;273905;1269;22262;-82
2024/04/19 11:57:43;;;;;;;2.70;1.30;;;;;;;14.06;58.92;98242.35;271358;1269;22974;-82
2024/04/19 12:04:03;;;;;;;2.70;1.40;;;;;;;13.61;58.56;98240.30;270684;1266;23898;-82
2024/04/19 12:10:06;;;;;;;3.60;1.60;;;;;;;13.03;57.63;98237.44;270899;1269;22514;-83
2024/04/19 12:16:07;;;;;;;3.80;1.40;;;;;;;12.49;56.31;98231.29;271330;1269;22467;-82
2024/04/19 12:22:09;;;;;;;3.50;1.20;;;;;;;12.35;58.36;98223.73;272307;1269;22978;-82
2024/04/19 12:28:31;;;;;;;1.90;1.30;;;;;;;12.56;58.94;98216.80;273630;1269;22259;-82
2024/04/19 12:34:55;;;;;;;3.00;1.20;;;;;;;12.52;56.47;98208.52;273642;1269;22273;-82
2024/04/19 12:40:58;;;;;;;4.40;1.50;;;;;;;12.22;56.87;98203.30;272494;1269;22526;-81
2024/04/19 12:47:21;;;;;;;4.20;1.50;;;;;;;11.90;58.04;98206.66;273475;1277;22419;-81
2024/04/19 12:54:03;;;;;;;3.00;1.40;;;;;;;11.59;58.57;98201.90;273305;1269;23342;-81
2024/04/19 13:00:07;;;;;;;2.40;1.30;;;;;;;11.61;59.07;98199.24;269843;1269;25310;-82
2024/04/19 13:06:10;;;;;;;3.40;1.00;;;;;;;11.50;59.18;98194.35;270464;1269;22504;-80
2024/04/19 13:12:12;;;;;;;2.00;1.00;;;;;;;11.28;59.08;98192.34;270692;1269;22707;-81
2024/04/19 13:18:14;;;;;;;2.20;0.90;;;;;;;11.09;58.68;98187.02;272165;1269;22278;-81
2024/04/19 13:24:56;;;;;;;4.90;1.20;;;;;;;11.16;58.76;98173.76;273964;1269;22393;-82
2024/04/19 13:31:03;;;;;;;2.50;1.40;;;;;;;11.23;58.93;98167.48;273697;1272;22309;-81
2024/04/19 13:37:26;;;;;;;3.10;1.50;;;;;;;11.25;57.92;98158.62;272848;1269;22266;-83
2024/04/19 13:43:28;;;;;;;3.30;1.20;;;;;;;11.08;57.84;98148.20;271921;1263;22424;-82
2024/04/19 13:49:30;;;;;;;2.70;1.30;;;;;;;11.19;58.60;98141.73;273753;1269;22244;-82
2024/04/19 13:55:33;;;;;;;2.80;1.60;;;;;;;11.22;58.27;98140.46;273698;1269;22239;-81
2024/04/19 14:01:35;;;;;;;2.50;1.10;;;;;;;11.24;57.72;98129.98;273370;1269;22230;-82
2024/04/19 14:07:38;;;;;;;2.40;1.30;;;;;;;11.20;57.47;98127.41;273581;1266;23558;-81
2024/04/19 14:13:46;;;;;;;5.50;1.20;;;;;;;11.09;57.27;98119.01;273488;1269;22361;-82
2024/04/19 14:20:08;;;;;;;1.70;1.10;;;;;;;11.01;57.83;98109.67;273060;1269;22345;-81
2024/04/19 14:26:50;;;;;;;1.90;1.20;;;;;;;10.95;57.53;98100.61;273773;1276;22362;-82
2024/04/19 14:32:54;;;;;;;2.80;1.40;;;;;;;10.94;57.62;98090.05;273730;1269;22725;-82
2024/04/19 14:38:57;;;;;;;4.00;1.30;;;;;;;11.06;57.43;98080.45;272763;1269;22306;-82
2024/04/19 14:44:59;;;;;;;2.70;1.70;;;;;;;11.06;57.03;98071.92;271120;1269;22584;-81
2024/04/19 14:51:01;;;;;;;2.40;1.30;;;;;;;10.91;56.53;98064.95;270927;1269;22363;-82
2024/04/19 14:57:04;;;;;;;3.60;1.20;;;;;;;10.74;57.11;98060.73;273332;1254;22382;-82
2024/04/19 15:03:08;;;;;;;3.00;1.40;;;;;;;10.66;57.99;98050.84;273277;1266;23459;-82
2024/04/19 15:09:30;;;;;;;3.50;1.40;;;;;;;10.63;58.00;98039.44;273249;1275;22271;-82
2024/04/19 15:15:32;;;;;;;3.80;1.80;;;;;;;10.62;58.10;98037.02;273368;1269;22278;-82
2024/04/19 15:22:15;;;;;;;4.70;1.70;;;;;;;10.72;57.88;98027.98;273546;1273;22259;-82
2024/04/19 15:28:58;;;;;;;4.50;1.70;;;;;;;10.84;58.53;98022.44;272596;1269;22868;-80
2024/04/19 15:35:02;;;;;;;5.50;1.90;;;;;;;10.87;57.93;98019.08;270760;1269;22524;-81
2024/04/19 15:41:44;;;;;;;2.90;1.50;;;;;;;10.81;57.52;98018.63;273445;1269;22333;-81
2024/04/19 15:48:27;;;;;;;2.90;1.40;;;;;;;10.71;57.88;98016.41;273491;1269;23042;-81
2024/04/19 15:55:30;;;;;;;4.70;1.60;;;;;;;10.71;57.20;98009.68;273780;1276;22250;-81
2024/04/19 16:01:38;;;;;;;4.20;1.80;;;;;;;10.63;57.57;98005.19;272347;1269;23414;-82
2024/04/19 16:07:45;;;;;;;2.80;1.20;;;;;;;10.56;57.92;98001.33;269992;1267;22654;-82
2024/04/19 16:13:47;;;;;;;4.30;1.70;;;;;;;10.50;57.71;97998.77;271216;1269;22462;-82
2024/04/19 16:19:48;;;;;;;4.10;1.90;;;;;;;10.47;57.42;97996.83;273354;1269;22345;-81
2024/04/19 16:25:51;;;;;;;3.00;1.70;;;;;;;10.41;57.30;97992.62;273504;1272;22243;-80
2024/04/19 16:31:53;;;;;;;3.80;1.50;;;;;;;10.35;57.67;97985.85;272602;1254;25577;-82
2024/04/19 16:38:16;;;;;;;3.10;1.50;;;;;;;10.23;58.11;97983.70;273002;1269;22306;-82
2024/04/19 16:44:18;;;;;;;5.10;2.00;;;;;;;10.16;58.20;97982.10;273095;1264;22309;-80
2024/04/19 16:50:40;;;;;;;3.40;1.50;;;;;;;10.08;58.40;97982.81;271778;1269;22717;-81
2024/04/19 16:57:04;;;;;;;6.20;2.10;;;;;;;9.99;58.06;97984.23;270406;1269;22604;-80
2024/04/19 17:03:06;;;;;;;2.00;1.30;;;;;;;9.83;58.93;97983.95;270973;1269;22515;-81
2024/04/19 17:09:08;;;;;;;3.00;1.50;;;;;;;9.59;58.99;97983.21;271878;1269;22421;-81
2024/04/19 17:15:34;;;;;;;3.00;1.70;;;;;;;9.41;58.76;97991.18;273664;1273;22232;-83
2024/04/19 17:21:56;;;;;;;6.80;1.80;;;;;;;9.16;58.92;98000.23;273439;1270;22237;-82
2024/04/19 17:28:19;;;;;;;3.80;1.60;;;;;;;8.93;59.26;98003.48;273442;1267;22249;-82
2024/04/19 17:34:41;;;;;;;4.00;1.40;;;;;;;8.65;59.30;98007.23;273366;1273;22376;-81
2024/04/19 17:40:49;;;;;;;5.00;1.70;;;;;;;8.44;59.99;98010.98;273039;1269;22563;-82
2024/04/19 17:46:52;;;;;;;2.50;1.40;;;;;;;8.28;60.29;98014.59;270396;1269;24321;-83
2024/04/19 17:52:54;;;;;;;2.50;1.70;;;;;;;8.20;60.78;98013.04;271011;1269;22522;-82
2024/04/19 17:59:16;;;;;;;2.80;1.50;;;;;;;8.16;60.87;98009.73;270701;1263;23424;-82
2024/04/19 18:05:40;;;;;;;4.10;2.10;;;;;;;8.14;61.24;98010.59;273172;1270;22234;-82
2024/04/19 18:11:45;;;;;;;3.90;2.00;;;;;;;8.10;61.35;98012.21;265594;1266;10002662;-82
2024/04/19 18:17:47;;;;;;;3.60;2.30;;;;;;;7.99;61.41;98002.95;271943;1269;22822;-82
2024/04/19 18:23:48;;;;;;;4.70;2.20;;;;;;;7.84;61.60;98003.58;271237;1258;23375;-84
2024/04/19 18:29:56;;;;;;;4.50;2.40;;;;;;;7.71;61.79;98004.20;270873;1257;22567;-81
2024/04/19 18:36:07;;;;;;;3.80;2.20;;;;;;;7.61;62.03;98005.91;272401;1269;22347;-82
2024/04/19 18:42:09;;;;;;;6.10;2.60;;;;;;;7.50;62.15;98005.38;273295;1269;22248;-81
2024/04/19 18:48:12;;;;;;;4.70;2.00;;;;;;;7.40;62.35;98010.82;273480;1269;22238;-81
2024/04/19 18:54:14;;;;;;;6.80;2.80;;;;;;;7.30;62.58;98010.19;273203;1269;23678;-82
2024/04/19 19:00:18;;;;;;;4.30;2.40;;;;;;;7.20;62.82;98008.95;273154;1269;22346;-82
2024/04/19 19:07:02;;;;;;;5.30;2.60;;;;;;;7.12;63.16;98013.08;273438;1260;23607;-81
2024/04/19 19:14:05;;;;;;;6.10;2.60;;;;;;;6.97;63.90;98006.94;273112;1269;22267;-82
2024/04/19 19:20:47;;;;;;;5.50;3.10;;;;;;;6.85;64.17;97998.34;273651;1276;22278;-81
2024/04/19 19:27:29;;;;;;;9.20;3.70;;;;;;;6.78;64.59;97988.65;273375;1267;22261;-80
2024/04/19 19:34:11;;;;;;;8.20;4.10;;;;;;;6.72;64.97;97978.18;273375;1269;22400;-81
2024/04/19 19:40:13;;;;;;;7.10;3.70;;;;;;;6.71;65.44;97968.54;273452;1272;22373;-81
2024/04/19 19:46:55;;;;;;;9.80;4.30;;;;;;;6.70;65.78;97964.10;273605;1270;22983;-81
2024/04/19 19:53:37;;;;;;;7.90;4.30;;;;;;;6.71;65.88;97959.98;273582;1270;22364;-81
2024/04/19 20:06:01;;;;;;;9.20;3.60;;;;;;;6.70;66.77;97963.02;273233;1269;22267;-81
2024/04/19 20:12:03;;;;;;;6.50;3.40;;;;;;;6.63;67.41;97963.88;273087;1266;23655;-82
2024/04/19 20:18:05;;;;;;;7.40;3.60;;;;;;;6.55;68.08;97961.30;273141;1269;22345;-81
2024/04/19 20:24:09;;;;;;;5.70;3.10;;;;;;;6.49;68.14;97965.81;273787;1269;22283;-81
2024/04/19 20:30:49;;;;;;;7.20;3.10;;;;;;;6.41;69.05;97964.48;273427;1272;22248;-81
2024/04/19 20:36:51;;;;;;;8.70;3.20;;;;;;;6.35;69.74;97957.98;273073;1269;22265;-83
2024/04/19 20:43:12;;;;;;;4.70;2.70;;;;;;;6.34;71.17;97961.39;273299;1269;22279;-82
2024/04/19 20:49:14;;;;;;;4.60;2.90;;;;;;;6.29;71.98;97965.52;273116;1257;22418;-81
2024/04/19 20:55:56;;;;;;;6.40;3.20;;;;;;;6.23;71.74;97964.91;273689;1267;23046;-81
2024/04/19 21:02:33;;;;;;;6.10;2.80;;;;;;;6.23;70.85;97960.63;273097;1268;23168;-81
2024/04/19 21:08:42;;;;;;;;;;;;;;;6.27;70.64;97958.34;270618;1269;22513;-81
2024/04/19 21:15:06;;;;;;;5.70;2.90;;;;;;;6.30;71.23;97963.44;271599;1269;342933;-81
2024/04/19 21:22:06;;;;;;;6.90;3.50;;;;;;;6.35;72.13;97964.11;273168;1269;22967;-81
2024/04/19 21:28:53;;;;;;;6.40;2.70;;;;;;;6.43;72.06;97962.57;273638;1269;22255;-81
2024/04/19 21:35:52;;;;;;;18.10;6.10;;;;;;;6.50;73.55;97959.84;273728;1273;22257;-82
2024/04/19 21:41:54;;;;;;;23.30;7.60;;;;;;;6.51;73.30;97958.45;271944;1269;23115;-81
2024/04/19 21:47:58;;;;;;;25.70;7.80;;;;;;;6.51;73.53;97964.67;272543;1269;22733;-81
2024/04/19 21:54:00;;;;;;;13.00;4.50;;;;;;;6.53;74.69;97962.05;269610;1269;22616;-80
2024/04/19 22:00:42;;;;;;;6.70;2.50;;;;;;;6.52;75.24;97954.42;269558;1269;22645;-80
2024/04/19 22:07:04;;;;;;;5.40;2.10;;;;;;;6.51;75.18;97947.98;269453;1269;22643;-80
2024/04/19 22:13:47;;;;;;;7.60;3.10;;;;;;;6.50;75.56;97943.38;269539;1268;22565;-80
2024/04/19 22:20:11;;;;;;;8.30;3.50;;;;;;;6.46;76.30;97943.11;271862;1269;22230;-81
2024/04/19 22:26:12;;;;;;;6.40;2.90;;;;;;;6.46;76.60;97936.27;273371;1269;22421;-82
2024/04/19 22:32:15;;;;;;;6.20;2.60;;;;;;;6.46;77.12;97930.28;270310;1269;23491;-81
2024/04/19 22:38:50;;;;;;;3.30;1.70;;;;;;;6.46;77.30;97930.45;271298;1269;23779;-80
2024/04/19 22:45:53;;;;;;;3.50;1.40;;;;;;;6.48;77.59;97930.52;270252;1263;22522;-81
2024/04/19 22:52:35;;;;;;;2.20;1.20;;;;;;;6.49;78.12;97934.20;273760;1269;23205;-81
2024/04/19 22:58:37;;;;;;;1.60;1.10;;;;;;;6.51;77.99;97931.34;273352;1269;22338;-80
2024/04/19 23:04:59;;;;;;;2.00;1.20;;;;;;;6.55;78.32;97924.77;273625;1269;22247;-82
2024/04/19 23:11:03;;;;;;;2.00;1.20;;;;;;;6.57;78.77;97921.77;271476;1269;22553;-80
2024/04/19 23:17:43;;;;;;;1.60;1.00;;;;;;;6.57;78.98;97930.63;269956;1269;22665;-81
2024/04/19 23:23:45;;;;;;;2.70;1.20;;;;;;;6.57;78.88;97925.51;272022;1269;22452;-82
2024/04/19 23:30:27;;;;;;;2.10;1.30;;;;;;;6.60;79.05;97918.98;273425;1269;22398;-81
2024/04/19 23:36:32;;;;;;;1.30;1.00;;;;;;;6.63;79.00;97914.91;272161;1269;22555;-80
2024/04/19 23:42:34;;;;;;;1.20;1.00;;;;;;;6.65;79.20;97909.57;271393;1269;22531;-82
2024/04/19 23:49:18;;;;;;;1.80;1.00;;;;;;;6.65;79.30;97905.53;270225;1269;22527;-80
2024/04/19 23:56:01;;;;;;;2.00;1.30;;;;;;;6.66;79.39;97900.95;272810;1269;22362;-81
